Terminal Aerodrome Forecast
Issued by NWS

Home | Current Version | Previous Version | Text Only | Print | Product List | Glossary On
Versions: 1 2 3 4 5 6 7 8 9 10 11 12 13 14 15
000
FTUS43 KDLH 251100
TAFBRD
TAF
KBRD 251120Z 2512/2612 08006KT P6SM FEW022 OVC060
     FM251600 08008G15KT P6SM OVC060
     FM252000 07009KT P6SM SCT060
     FM260200 07003KT P6SM SKC=

USA.gov is the U.S. government's official web portal to all federal, state and local government web resources and services.